Okolona, Ohio
Current Conditions -  °F | °C
As of 11:11 AM on Sunday 25 Jan 2015 (Local Time) from KDFI Reporting Station
Light Snow Light Snow  
Wind Chill: 16°   Ceiling: 1200
Heat Index: 28°   Visibility: 1.7mi
Dew Point: 24°   Wind: 16mph
Humidity: 85%   Direction: 70°ENE
Pressure: 29.83"   Gusts: 23mph
Location:  41.36°N, 84.22°W
Report Text: KDFI 251611Z AUTO 07014G20KT 1 3/4SM -SN BR OVC012 M02/M04 A2983 RMK AO2 P0000 T10221044
Loading
Personal Weather Stations






























Interactive Weather Map New forecast layout! Learn more

10-Day Weather Forecast

Advertisements
Track Severe Weather on mobile